Tiempo atmosférico en la estación meteorológica de Calanda, Teruel (459 m.)



Fecha
DESCASC
Temp. máxima en grados centígrados (hora)
DESCASC
Temp. mínima en grados centígrados (hora)
DESCASC
Temp. media en grados centígrados
DESCASC
Racha de viento máxima en m/sg (hora)
DESCASC
Velocidad máxima media en intervalos de 10 minutos(hora)
DESCASC
Precipitaciones diarias en mm
DESCASC
Precipitaciones de 00:00 a 06:00 en mm
DESCASC
Precipitaciones de 06:00 a 12:00 en mm
DESCASC
Precipitaciones de 12:00 a 18:00 en mm
DESCASC
Precipitaciones de 18:00 a 24:00 en mm
DESCASC
14-07-2019 30.1 (19:20) 19.7 (00:00) 24.9 10.83 (00:20) 6.39 (00:20) 3.8 0 3.8 0 0
13-07-2019 36.8 (17:30) 23.9 (00:00) 30.3 13.06 (18:50) 7.22 (18:50) 0 0 0 0 0
12-07-2019 38.4 (16:50) 21.9 (00:00) 30.2 8.33 (17:00) 4.72 (17:40) 0 0 0 0 0
11-07-2019 36 (18:20) 19.6 (00:00) 27.8 7.22 (16:30) 4.44 (07:40) 0 0 0 0 0
10-07-2019 31.7 (19:30) 15.2 (00:00) 23.5 6.39 (14:20) 3.33 (14:30) 0 0 0 0 0
09-07-2019 28.4 (16:30) 15.5 (00:00) 21.9 11.94 (03:00) 7.5 (03:00) 4 4 0 0 0
08-07-2019 29.1 (14:00) 21.1 (00:00) 25.1 20.28 (19:50) 11.67 (21:00) 4 2.6 0 1.4 0
07-07-2019 35.5 (16:50) 18.9 (00:00) 27.2 18.33 (19:30) 8.33 (19:30) 2.4 0 0 0 2.4
06-07-2019 38 (14:40) 23.1 (00:00) 30.6 11.39 (20:20) 6.94 (20:20) 0 0 0 0 0
05-07-2019 37.7 (18:00) 22.4 (00:00) 30.1 10.83 (00:10) 5 (00:10) 0 0 0 0 0
04-07-2019 36.3 (14:30) 20.3 (00:00) 28.3 14.44 (21:20) 7.22 (19:40) 0 0 0 0 0
03-07-2019 37.1 (16:20) 20.7 (00:00) 28.9 11.94 (21:30) 6.39 (22:00) -- 0 0 -- 0
02-07-2019 35.6 (17:10) 17.3 (07:00) 26.4 12.5 (20:50) 6.94 (21:00) 0 0 0 0 0
01-07-2019 38.2 (16:00) 22.8 (07:30) 30.5 15 (19:10) 9.44 (18:10) 0 0 0 0 0
30-06-2019 41.5 (15:50) 25.6 (00:00) 33.6 14.17 (22:40) 7.78 (19:50) 0 0 0 0 0
29-06-2019 43.2 (16:20) 22.1 (00:00) 32.7 11.39 (19:30) 7.78 (19:30) 0 0 0 0 0
28-06-2019 42.6 (16:20) 22.8 (00:00) 32.7 11.11 (16:50) 6.11 (17:10) 0 0 0 0 0
27-06-2019 40.2 (17:40) 22.4 (00:00) 31.3 15.83 (01:10) 8.61 (02:50) 0 0 0 0 0
26-06-2019 36.4 (15:50) 17.8 (00:00) 27.1 15.83 (17:20) 9.17 (17:30) 0 0 0 0 0
25-06-2019 36.7 (19:10) 17.5 (00:00) 27.1 10.83 (20:20) 5.83 (20:00) 0 0 0 0 0
24-06-2019 35.5 (15:00) 18.6 (00:00) 27.1 19.72 (02:00) 11.39 (02:30) 0 0 0 0 0
23-06-2019 37.7 (16:20) 19.1 (00:00) 28.4 15.28 (21:10) 8.06 (21:20) 0 0 0 0 0
22-06-2019 33.6 (18:00) 13.8 (00:00) 23.7 9.17 (19:30) 5.83 (19:40) 0 0 0 0 0
21-06-2019 25.9 (18:50) 16.1 (00:00) 21 7.22 (16:20) 3.89 (22:10) 0 0 0 0 0
20-06-2019 30.2 (15:00) 17.1 (00:00) 23.7 13.89 (18:30) 7.22 (18:30) 9.4 0 0 0 9.4
19-06-2019 33.6 (16:40) 17.8 (00:00) 25.7 9.17 (00:30) 4.72 (00:30) 0 0 0 0 0
18-06-2019 36.1 (15:30) 21.8 (00:00) 28.9 14.17 (17:00) 8.89 (18:20) 0 0 0 0 0
17-06-2019 35 (17:10) 16.2 (00:00) 25.6 13.06 (22:00) 7.22 (23:00) 0 0 0 0 0
16-06-2019 31.1 (17:30) 12.6 (00:00) 21.9 8.33 (17:50) 4.72 (19:30) 0 0 0 0 0

Gráficas

Temp. máximas Temp. mínimas Temp. medias Precipitaciones Rachas de viento máximas Velocidades máximas media en intervalos de 10 minutos

Datos horarios

Fecha y hora oficial Temperatura (ºC) Velocidad del viento (km/h) Dirección del viento Racha (km/h) Dirección de racha Precipitación (mm) Presión (hPa) Tendencia (hPa) Humedad (%)
2019-07-15 23:00:00 23.5 3 Oeste 13 Noroeste 0 961.4 2.2 30
2019-07-15 22:00:00 25.3 9 Noroeste 26 Noroeste 0 960.5 1.8 25
2019-07-15 21:00:00 27.4 14 Noroeste 34 Noroeste 0 959.9 1.3 20
2019-07-15 20:00:00 29.5 19 Noroeste 38 Noroeste 0 959.2 0.3 19
2019-07-15 19:00:00 30.8 21 Noroeste 43 Noroeste 0 958.7 -0.4 18
2019-07-15 18:00:00 31.1 18 Noroeste 40 Noroeste 0 958.6 -0.7 16
2019-07-15 17:00:00 30.7 21 Noroeste 37 Noroeste 0 958.9 -0.7 19
2019-07-15 16:00:00 30.1 19 Noroeste 49 Noroeste 0 959.1 -0.9 22
2019-07-15 15:00:00 29.1 22 Noroeste 40 Noroeste 0 959.3 -0.7 22
2019-07-15 14:00:00 28.1 23 Noroeste 40 Norte 0 959.6 -0.4 24
2019-07-15 13:00:00 27.5 22 Noroeste 37 Noroeste 0 960 -0.1 27
2019-07-15 12:00:00 26.3 17 Noroeste 36 Noroeste 0 960 -0.1 29
2019-07-15 11:00:00 25 21 Noroeste 37 Noroeste 0 960 0.1 33
2019-07-15 10:00:00 23.1 22 Noroeste 39 Noroeste 0 960.1 0.6 37
2019-07-15 09:00:00 21.7 17 Noroeste 28 Noroeste 0 960.1 0.4 40
2019-07-15 08:00:00 19.9 7 Oeste 18 Oeste 0 959.9 0.4 45
2019-07-15 07:00:00 18.3 11 Sudoeste 21 Sudoeste 0 959.5 -0.1 50
2019-07-15 06:00:00 18.4 8 Oeste 22 Oeste 0 959.7 -0.2 49
2019-07-15 05:00:00 19.3 13 Oeste 24 Oeste 0 959.5 -0.8 46
2019-07-15 04:00:00 18.8 7 Sudoeste 19 Oeste 0 959.6 -0.9 47
2019-07-15 03:00:00 19.5 6 Sudoeste 18 Oeste 0 959.9 -0.5 45
2019-07-15 02:00:00 20.6 9 Oeste 22 Oeste 0 960.3 0 43
2019-07-15 01:00:00 22 13 Oeste 29 Oeste 0 960.5 1.1 37
2019-07-15 00:00:00 22.9 11 Oeste 28 Oeste 0 960.4 1.7 36
2019-07-14 23:00:00 23.8 12 Oeste 26 Noroeste 0 960.3 1.8 38
2019-07-14 22:00:00 25 19 Noroeste 31 Noroeste 0 959.4 1.3 36
2019-07-14 21:00:00 26.9 19 Noroeste 35 Noroeste 0 958.7 0.2 32
2019-07-14 20:00:00 29.3 18 Noroeste 32 Noroeste 0 958.5 -0.3 31
2019-07-14 19:00:00 29.9 17 Noroeste 28 Noroeste 0 958.1 -1.3 31
2019-07-14 18:00:00 29.7 13 Noroeste 27 Oeste 0 958.5 -1.3 34
2019-07-14 17:00:00 28.4 12 Noroeste 23 Noroeste 0 958.8 -1.1 38
2019-07-14 16:00:00 26.2 12 Norte 27 Norte 0 959.4 -0.7 53
2019-07-14 15:00:00 25.5 17 Noroeste 33 Noroeste 0 959.8 -0.8 59
2019-07-14 14:00:00 24.9 16 Norte 26 Norte 0 959.9 -0.4 64
2019-07-14 13:00:00 23.4 12 Noroeste 22 Noroeste 0 960.1 0.2 71
2019-07-14 12:00:00 21.3 13 Noroeste 23 Noroeste 0 960.6 1.6 80
2019-07-14 11:00:00 20.3 9 Noroeste 14 Noroeste 0.2 960.3 1.5 86
2019-07-14 10:00:00 19.7 4 Noroeste 14 Noroeste 2.4 959.9 1 90
2019-07-14 09:00:00 20.9 10 Noroeste 21 Oeste 1.2 959 0 79
2019-07-14 08:00:00 21.1 13 Oeste 21 Oeste 0 958.8 -0.2 69
2019-07-14 07:00:00 21.2 12 Oeste 22 Oeste 0 958.9 -0.3 69
2019-07-14 06:00:00 21.2 8 Oeste 17 Oeste 0 959 -0.5 70
2019-07-14 05:00:00 21 12 Oeste 32 Oeste 0 959 -0.3 70
2019-07-14 04:00:00 22.1 15 Oeste 28 Oeste 0 959.2 1.3 63
2019-07-14 03:00:00 22.8 10 Oeste 28 Oeste 0 959.5 1.9 61
2019-07-14 02:00:00 25.7 19 Noroeste 35 Sudeste 0 959.3 1.7 49
2019-07-14 01:00:00 26.7 9 Sudeste 39 Sudeste 0 957.9 -0.2 37
2019-07-14 00:00:00 27.8 19 Sur 39 Sur 0 957.6 -0.7 33
2019-07-13 23:00:00 28 21 Sur 36 Sudeste 0 957.6 -1 35
2019-07-13 22:00:00 27.6 3 Sur 15 Norte 0 958.1 -0.7 37
2019-07-13 21:00:00 30.6 7 Norte 19 Nordeste 0 958.3 0 31
2019-07-13 20:00:00 32.2 11 Norte 27 Norte 0 958.6 -0.5 24
2019-07-13 19:00:00 33.1 15 Norte 47 Norte 0 958.8 -1.3 20
2019-07-13 18:00:00 36.2 14 Norte 24 Norte 0 958.3 -2.8 15
2019-07-13 17:00:00 35.2 6 Norte 11 Sudeste 0 959.1 -3.1 16
2019-07-13 16:00:00 34.5 6 Este 15 Sudeste 0 960.1 -2.2 17
2019-07-13 15:00:00 31.8 8 Nordeste 28 Noroeste 0 961.1 -0.9 21
2019-07-13 14:00:00 32.2 7 Norte 19 Norte 0 962.2 0.2 19
2019-07-13 13:00:00 30.6 10 Norte 21 Norte 0 962.3 -0.3 22
2019-07-13 12:00:00 30.5 10 Norte 18 Nordeste 0 962 -0.9 22
2019-07-13 11:00:00 28.9 6 Norte 12 Norte 0 962 -0.6 25
2019-07-13 10:00:00 27.7 6 Este 13 Este 0 962.6 0.2 33
2019-07-13 09:00:00 25.7 0 Calma 7 Sur 0 962.9 0.2 33
2019-07-13 08:00:00 24.1 5 Norte 15 Sudoeste 0 962.6 0.3 40
2019-07-13 07:00:00 24.4 7 Sudoeste 15 Sudoeste 0 962.4 0.2 36
2019-07-13 06:00:00 24.6 9 Sudoeste 19 Sudoeste 0 962.7 0.7 36
2019-07-13 05:00:00 24.1 6 Oeste 11 Oeste 0 962.3 0.5 37
2019-07-13 04:00:00 25.7 9 Sudoeste 19 Sudoeste 0 962.2 0.3 32
2019-07-13 03:00:00 25.4 4 Sudoeste 16 Sudoeste 0 962 0.1 34
2019-07-13 02:00:00 26.8 7 Sudoeste 17 Sudoeste 0 961.8 0.2 31
2019-07-13 01:00:00 28.1 5 Sudoeste 10 Sudoeste 0 961.9 0.6 27
2019-07-13 00:00:00 28.6 5 Sudoeste 9 Sudoeste 0 961.9 0.9 26
2019-07-12 23:00:00 30.2 4 Sudoeste 10 Oeste 0 961.6 1 24
2019-07-12 22:00:00 31.8 5 Oeste 11 Noroeste 0 961.3 0.8 20
2019-07-12 21:00:00 35 8 Norte 13 Norte 0 961 0.4 15
2019-07-12 20:00:00 36.7 8 Norte 17 Nordeste 0 960.6 -0.4 13
2019-07-12 19:00:00 37.8 7 Norte 22 Norte 0 960.5 -0.8 12
2019-07-12 18:00:00 38.1 15 Norte 27 Norte 0 960.6 -1.3 11
2019-07-12 17:00:00 37.7 13 Norte 30 Norte 0 961 -1.4 12
2019-07-12 16:00:00 37.2 11 Norte 23 Norte 0 961.3 -1.5 13
2019-07-12 15:00:00 35.9 9 Norte 19 Norte 0 961.9 -1.2 14
2019-07-12 14:00:00 34.4 6 Norte 17 Norte 0 962.4 -0.9 16
2019-07-12 13:00:00 33.2 6 Norte 15 Norte 0 962.8 -0.5 16
2019-07-12 12:00:00 32.6 6 Nordeste 14 Norte 0 963.1 -0.2 16
2019-07-12 11:00:00 30.8 6 Norte 11 Nordeste 0 963.3 0.3 24
2019-07-12 10:00:00 28.2 3 Nordeste 10 Sudoeste 0 963.3 0.7 25
2019-07-12 09:00:00 25.7 6 Sudoeste 17 Sudoeste 0 963.3 1.2 36
2019-07-12 08:00:00 23.3 13 Sudoeste 18 Sudoeste 0 963 0.9 43
2019-07-12 07:00:00 22 5 Oeste 17 Sudoeste 0 962.6 0.6 45
2019-07-12 06:00:00 22.7 13 Sudoeste 19 Sudoeste 0 962.1 0.3 46
2019-07-12 05:00:00 22.8 7 Sudoeste 15 Sudoeste 0 962.1 0.3 47
2019-07-12 04:00:00 23.4 3 Oeste 15 Sudoeste 0 962 0.2 46
2019-07-12 03:00:00 23.9 5 Sur 14 Sudoeste 0 961.8 0.2 45
2019-07-12 02:00:00 24.9 7 Sudoeste 17 Sudoeste 0 961.8 0.7 40
2019-07-12 01:00:00 25.6 6 Oeste 14 Sudoeste 0 961.8 1.5 38
2019-07-12 00:00:00 27.2 4 Sudoeste 10 Sudoeste 0 961.6 1.6 34
2019-07-11 23:00:00 27.9 4 Sur 9 Oeste 0 961.1 1.3 30
2019-07-11 22:00:00 30.1 4 Oeste 8 Norte 0 960.3 0.6 28
2019-07-11 21:00:00 33.6 5 Norte 15 Norte 0 960 -0.1 20
2019-07-11 20:00:00 35 9 Norte 18 Norte 0 959.8 -0.6 19
2019-07-11 19:00:00 35.8 8 Nordeste 22 Norte 0 959.7 -0.9 20
2019-07-11 18:00:00 35.3 10 Norte 23 Norte 0 960.1 -0.8 20
2019-07-11 17:00:00 34.9 11 Norte 26 Norte 0 960.4 -1 20
2019-07-11 16:00:00 34.5 8 Nordeste 26 Norte 0 960.6 -1.2 21
2019-07-11 15:00:00 33.5 12 Norte 21 Norte 0 960.9 -1.2 23
2019-07-11 14:00:00 32.7 7 Norte 18 Norte 0 961.4 -0.9 24
2019-07-11 13:00:00 31.2 8 Noroeste 15 Noroeste 0 961.8 -0.4 26
2019-07-11 12:00:00 29.8 7 Norte 16 Norte 0 962.1 -0.3 28
2019-07-11 11:00:00 28.6 4 Norte 15 Norte 0 962.3 0.2 29
2019-07-11 10:00:00 26.6 4 Oeste 10 Sur 0 962.2 0.4 33
2019-07-11 09:00:00 23.5 8 Sudoeste 17 Sudoeste 0 962.4 0.9 43
2019-07-11 08:00:00 21.2 10 Sudoeste 22 Sudoeste 0 962.1 0.5 49
2019-07-11 07:00:00 19.7 11 Sudoeste 17 Sudoeste 0 961.8 0.3 54
2019-07-11 06:00:00 19.9 11 Sudoeste 18 Sudoeste 0 961.5 -0.3 53
2019-07-11 05:00:00 20.2 11 Sudoeste 15 Sudoeste 0 961.6 -0.1 53
2019-07-11 04:00:00 20.7 7 Sudoeste 11 Sudoeste 0 961.5 -0.3 52
2019-07-11 03:00:00 21.8 8 Sudoeste 17 Sudoeste 0 961.8 0.1 47
2019-07-11 02:00:00 22.4 10 Sudoeste 18 Sudoeste 0 961.7 0.1 46
2019-07-11 01:00:00 23.4 7 Sur 16 Sudoeste 0 961.8 0.9 43
2019-07-11 00:00:00 24.1 5 Oeste 14 Sudoeste 0 961.7 1.3 40
2019-07-10 23:00:00 24.6 3 Sudoeste 11 Oeste 0 961.6 1.5 37
2019-07-10 22:00:00 27 0 Calma 6 Norte 0 960.9 0.8 33
2019-07-10 21:00:00 30 5 Norte 12 Noroeste 0 960.4 -0.2 23
2019-07-10 20:00:00 31.6 6 Nordeste 17 Norte 0 960.1 -0.8 20
2019-07-10 19:00:00 31.2 8 Norte 19 Norte 0 960.1 -1.3 21
2019-07-10 18:00:00 30.7 11 Norte 21 Norte 0 960.6 -1.4 22
2019-07-10 17:00:00 31.2 5 Noroeste 22 Noroeste 0 960.9 -1.7 21
2019-07-10 16:00:00 29.9 9 Norte 22 Noroeste 0 961.4 -1.7 24
2019-07-10 15:00:00 29.1 9 Norte 23 Noroeste 0 962 -1.5 25
2019-07-10 14:00:00 27.5 11 Norte 20 Noroeste 0 962.6 -1 29
2019-07-10 13:00:00 26.9 8 Noroeste 21 Norte 0 963.1 -0.7 30
2019-07-10 12:00:00 25 6 Nordeste 18 Norte 0 963.5 -0.2 33
2019-07-10 11:00:00 23.7 5 Oeste 14 Noroeste 0 963.6 0.2 37
2019-07-10 10:00:00 21.5 6 Oeste 14 Oeste 0 963.8 0.6 42
2019-07-10 09:00:00 19.4 5 Oeste 12 Sudoeste 0 963.7 0.4 46
2019-07-10 08:00:00 17.4 6 Sudoeste 11 Sudoeste 0 963.4 0.4 55
2019-07-10 07:00:00 15.4 6 Sudoeste 13 Sudoeste 0 963.2 0.3 62
2019-07-10 06:00:00 15.4 6 Sudoeste 10 Sudoeste 0 963.3 0.2 60
2019-07-10 05:00:00 15.7 3 Sudoeste 15 Sudoeste 0 963 -0.4 63
2019-07-10 04:00:00 16.9 9 Sudoeste -- -- 0 962.9 -0.4 56
2019-07-10 03:00:00 17.6 8 Sudoeste 15 Oeste 0 963.1 0 64
2019-07-10 02:00:00 18.2 7 Sudoeste 15 Oeste 0 963.4 0.6 63
2019-07-10 01:00:00 18.7 8 Oeste 12 Oeste 0 963.3 1.5 66
2019-07-10 00:00:00 19.7 6 Oeste 16 Oeste 0 963.1 2 61
2019-07-09 23:00:00 20.7 7 Oeste 14 Noroeste 0 962.8 2.1 57
2019-07-09 22:00:00 21.8 10 Noroeste 30 Noroeste 0 961.8 1.6 54
2019-07-09 21:00:00 23.6 15 Noroeste 30 Noroeste 0 961.1 1.1 48
2019-07-09 20:00:00 25.5 21 Noroeste 33 Noroeste 0 960.7 0.9 41
2019-07-09 19:00:00 26.3 21 Noroeste 37 Noroeste 0 960.2 0.3 39
2019-07-09 18:00:00 27 22 Noroeste 35 Noroeste 0 960 -0.2 37
2019-07-09 17:00:00 27.2 20 Noroeste 34 Noroeste 0 959.8 -0.8 36
2019-07-09 16:00:00 27 14 Noroeste 38 Noroeste 0 959.9 -0.9 34
2019-07-09 15:00:00 27.1 18 Noroeste 32 Noroeste 0 960.2 -0.4 36
2019-07-09 14:00:00 26 15 Noroeste 31 Noroeste 0 960.6 -0.1 41
2019-07-09 13:00:00 25.1 12 Noroeste 26 Noroeste 0 960.8 0.2 48
2019-07-09 12:00:00 23.3 9 Noroeste 23 Oeste 0 960.6 0.3 56
2019-07-09 11:00:00 22.8 15 Oeste 29 Oeste 0 960.7 0.4 60
2019-07-09 10:00:00 20.8 12 Oeste 24 Oeste 0 960.6 0.3 65
2019-07-09 09:00:00 17.8 10 Sudoeste 18 Sudoeste 0 960.3 0.9 82
2019-07-09 08:00:00 16.2 5 Oeste 14 Oeste 0 960.3 -0.4 90
2019-07-09 07:00:00 15.7 8 Oeste 19 Sudoeste 0 960.3 -0.6 91
2019-07-09 06:00:00 15.6 6 Este 24 Este 1.2 959.4 -1.5 91
2019-07-09 05:00:00 15.9 8 Sudoeste 31 Oeste 1.8 960.7 0.5 89
2019-07-09 04:00:00 16.3 14 Sudoeste 42 Oeste 0.8 960.9 0.5 85
2019-07-09 03:00:00 18.4 27 Oeste 43 Oeste 0.2 960.9 0 78
2019-07-09 02:00:00 19.2 8 Oeste 16 Oeste 0 960.2 1.7 82
2019-07-09 01:00:00 20.2 10 Noroeste 30 Oeste 0 960.4 2.3 70
2019-07-09 00:00:00 21.1 15 Noroeste 45 Sur 0 960.9 3.6 67
2019-07-08 23:00:00 24.2 25 Sur 48 Sur 0 958.5 3.1 50
2019-07-08 22:00:00 24.3 15 Sur 58 Sudeste 0 958.1 2.1 53
2019-07-08 21:00:00 25 42 Sudeste 67 Sudeste 0 957.3 1.5 50
2019-07-08 20:00:00 26.8 37 Sudeste 73 Sudeste 0 955.4 -1.9 42
2019-07-08 19:00:00 26.8 31 Sudeste 61 Sudeste 0 956 -1.2 45
2019-07-08 18:00:00 27.1 36 Sudeste 57 Sudeste 0 955.8 -1.5 42
2019-07-08 17:00:00 25.1 26 Sudeste 47 Sudeste 1.4 957.3 -0.8 49
2019-07-08 16:00:00 25.2 28 Sudeste 64 Sur 0 957.2 -2 45
2019-07-08 15:00:00 27.2 19 Sur 42 Sudeste 0 957.3 -2 39
2019-07-08 14:00:00 29.1 22 Sudeste 45 Sur 0 958.1 -1.4 37
2019-07-08 13:00:00 28.2 26 Sudeste 51 Sudeste 0 959.2 -0.7 36
2019-07-08 12:00:00 28.5 9 Este 17 Este 0 959.3 0.1 44
2019-07-08 11:00:00 25.8 5 Norte 8 Norte 0 959.5 0.2 51
2019-07-08 10:00:00 23.7 3 Nordeste 13 Norte 0 959.9 0.8 65
2019-07-08 09:00:00 21.7 6 Nordeste 11 Norte 0 959.2 0.1 73
2019-07-08 08:00:00 22.5 2 Noroeste 8 Este 0 959.3 0.3 61
2019-07-08 07:00:00 21.5 4 Sudeste 17 Este 0 959.1 0.7 64
2019-07-08 06:00:00 23.4 10 Sudeste 19 Este 0 959.1 1.1 51
2019-07-08 05:00:00 24.1 12 Sudeste 40 Sur 0 959 -0.1 48
2019-07-08 04:00:00 24.4 19 Sur 63 Sudeste 0 958.4 0.4 44
2019-07-08 03:00:00 24.7 30 Sur 66 Sudeste 0 958 -0.5 42
2019-07-08 02:00:00 23.8 26 Sudeste 48 Sur 2.6 959.1 1.2 49
2019-07-08 01:00:00 22.9 7 Sudoeste 17 Este 0 958 0.3 57
2019-07-08 00:00:00 23.5 9 Este 18 Este 0 958.5 0.4 59
2019-07-07 23:00:00 25.3 8 Nordeste 29 Sur 0 957.9 -0.9 53
2019-07-07 22:00:00 24.9 13 Sudeste 29 Sur 0 957.7 -0.2 54
2019-07-07 21:00:00 24 10 Sur 23 Sudeste 0 958.1 0.7 63
2019-07-07 20:00:00 23.6 10 Sur 66 Sudeste 1.6 958.8 0.8 62
2019-07-07 19:00:00 28.8 6 Sudeste 31 Norte 0.8 957.9 -0.3 48
2019-07-07 18:00:00 32.9 13 Norte 30 Nordeste 0 957.4 -1.9 20
2019-07-07 17:00:00 33.7 18 Norte 28 Norte 0 958 -2.1 17
2019-07-07 16:00:00 34 9 Nordeste 24 Nordeste 0 958.2 -2.6 14
2019-07-07 15:00:00 32.8 8 Nordeste 19 Norte 0 959.3 -2 25
2019-07-07 14:00:00 32.6 8 Nordeste 22 Norte 0 960.1 -1.3 23
2019-07-07 13:00:00 30 10 Norte 19 Nordeste 0 960.8 -0.7 30
2019-07-07 12:00:00 28.7 8 Norte 18 Nordeste 0 961.3 0.2 33
2019-07-07 11:00:00 27 6 Norte 11 Noroeste 0 961.4 0.7 34
2019-07-07 10:00:00 24.2 5 Norte 13 Este 0 961.5 1.3 41
2019-07-07 09:00:00 22.4 5 Nordeste 9 Norte 0 961.1 1.5 46
2019-07-07 08:00:00 20.2 2 Noroeste 9 Oeste 0 960.7 1.7 53
2019-07-07 07:00:00 19 4 Oeste 9 Noroeste 0 960.2 1.4 55
2019-07-07 06:00:00 20.3 2 Norte 6 Oeste 0 959.6 0.8 53
2019-07-07 05:00:00 22 2 Norte 13 Este 0 959 1 50
2019-07-07 04:00:00 24.7 4 Nordeste 10 Norte 0 958.8 0.8 36
2019-07-07 03:00:00 28.6 8 Oeste 23 Sudoeste 0 958.8 1 20
2019-07-07 02:00:00 27.8 9 Sudoeste 15 Sudoeste 0 958 0.7 28
2019-07-07 01:00:00 29.5 9 Sur 19 Sudoeste 0 958 1.1 27
2019-07-07 00:00:00 30.3 11 Sudoeste 25 Sur 0 957.8 1 28
2019-07-06 23:00:00 31.6 14 Sur 36 Sudeste 0 957.3 0.5 27
2019-07-06 22:00:00 31.8 19 Sur 35 Sudeste 0 956.9 -0.2 28
2019-07-06 21:00:00 32.3 22 Sudeste 41 Sur 0 956.8 -0.3 28
2019-07-06 20:00:00 32.9 19 Sudeste 35 Sudeste 0 956.8 -0.5 28
2019-07-06 19:00:00 33.5 9 Este 31 Este 0 957.1 -0.9 29
2019-07-06 18:00:00 35.1 14 Este 29 Sudeste 0 957.1 -1.7 25
2019-07-06 17:00:00 36.6 8 Nordeste 26 Nordeste 0 957.3 -2.1 14
2019-07-06 16:00:00 37.1 8 Nordeste 30 Este 0 958 -1.9 14
2019-07-06 15:00:00 37.7 10 Nordeste 22 Norte 0 958.8 -1.6 13
2019-07-06 14:00:00 37 9 Este 23 Nordeste 0 959.4 -1.2 14
2019-07-06 13:00:00 34.7 11 Norte 27 Norte 0 959.9 -1.1 17
2019-07-06 12:00:00 34.3 6 Nordeste 21 Norte 0 960.4 -0.6 21
2019-07-06 11:00:00 32.7 7 Nordeste 17 Norte 0 960.6 0.1 26
2019-07-06 10:00:00 29 5 Nordeste 11 Nordeste 0 961 0.7 33
2019-07-06 09:00:00 26.2 3 Nordeste 22 Sudoeste 0 961 0.6 45
2019-07-06 08:00:00 28 15 Sudoeste 23 Sudoeste 0 960.5 0.3 26
2019-07-06 07:00:00 23.4 3 Oeste 12 Oeste 0 960.3 0.2 46
2019-07-06 06:00:00 24 0 Calma 12 Oeste 0 960.4 0.1 46
2019-07-06 05:00:00 25.3 5 Oeste 19 Sudoeste 0 960.2 -0.3 41
2019-07-06 04:00:00 26.3 15 Sudoeste 22 Sudoeste 0 960.1 -0.4 39
2019-07-06 03:00:00 26.7 5 Oeste 21 Sudoeste 0 960.3 -0.2 38
2019-07-06 02:00:00 27.4 11 Sur 21 Sudoeste 0 960.5 0.1 39
2019-07-06 01:00:00 27.8 5 Sudoeste 17 Sudoeste 0 960.5 1.2 39
2019-07-06 00:00:00 28.7 7 Sudoeste 17 Sur 0 960.5 1.3 39
2019-07-05 23:00:00 29.5 11 Sur 19 Sur 0 960.4 1.5 38
2019-07-05 22:00:00 30.6 11 Sudeste 21 Sur 0 959.3 0.6 35
2019-07-05 21:00:00 32.5 9 Sudeste 27 Sudeste 0 959.2 0 31
2019-07-05 20:00:00 34.2 16 Sudeste 32 Sudeste 0 958.9 -0.9 27
2019-07-05 19:00:00 36.2 15 Sudeste 33 Norte 0 958.7 -1.9 23
2019-07-05 18:00:00 36.7 13 Nordeste 30 Nordeste 0 959.2 -2 23
2019-07-05 17:00:00 36.5 10 Nordeste 34 Norte 0 959.8 -2.2 19
2019-07-05 16:00:00 36.1 13 Norte 28 Norte 0 960.6 -2.2 14
2019-07-05 15:00:00 35.6 10 Norte 22 Norte 0 961.2 -1.8 15
2019-07-05 14:00:00 34.3 10 Norte 21 Norte 0 962 -1.2 16
2019-07-05 13:00:00 33.7 8 Norte 18 Norte 0 962.8 -0.5 17
2019-07-05 12:00:00 31.9 9 Norte 17 Noroeste 0 963 -0.5 18
2019-07-05 11:00:00 31.3 3 Norte 10 Sudeste 0 963.2 0 20
2019-07-05 10:00:00 28.1 3 Norte 9 Este 0 963.3 0.6 27
2019-07-05 09:00:00 25.4 2 Oeste 10 Sudoeste 0 963.5 0.9 30
2019-07-05 08:00:00 23.3 8 Sudoeste 17 Sudoeste 0 963.2 0.6 34
2019-07-05 07:00:00 22.6 9 Oeste 13 Oeste 0 962.7 -0.3 36
2019-07-05 06:00:00 24.6 9 Sudeste 30 Sudeste 0 962.6 -0.5 32
2019-07-05 05:00:00 23.7 6 Este 16 Sudeste 0 962.6 -0.6 34
2019-07-05 04:00:00 24.9 5 Sudeste 19 Sudeste 0 963 0.1 32
2019-07-05 03:00:00 25.6 11 Sudeste 34 Este 0 963.1 0.5 30
2019-07-05 02:00:00 26.1 13 Sudeste 26 Este 0 963.2 1.1 29
2019-07-05 01:00:00 26.5 6 Este 39 Sudeste 0 962.9 1.2 27
2019-07-05 00:00:00 26.9 17 Sur 40 Sur 0 962.6 1.1 27
2019-07-04 23:00:00 27.3 19 Sudeste 37 Sudeste 0 962.1 0.8 25
2019-07-04 22:00:00 28.1 19 Sudeste 52 Sudeste 0 961.7 0.6 24
2019-07-04 21:00:00 29.2 19 Sudeste 45 Sudeste 0 961.5 0.4 22
2019-07-04 20:00:00 30.7 24 Sudeste 46 Sur 0 961.3 0.2 18
2019-07-04 19:00:00 32.5 23 Sudeste 39 Sudeste 0 961.1 -0.1 16
2019-07-04 18:00:00 33.6 23 Sudeste 43 Sur 0 961.1 -0.6 18
2019-07-04 17:00:00 33.9 21 Sudeste 41 Sudeste 0 961.1 -0.8 17
2019-07-04 16:00:00 35.2 19 Sudeste 37 Sudeste 0 961.2 -1 18
2019-07-04 15:00:00 35.1 13 Sudeste 32 Sudeste 0 961.7 -0.9 16
2019-07-04 14:00:00 35.4 13 Sudeste 28 Sur 0 961.9 -1 15
2019-07-04 13:00:00 33.1 9 Norte 25 Nordeste 0 962.2 -1.1 22
2019-07-04 12:00:00 32.6 9 Este 27 Sudeste 0 962.6 -0.6 23
2019-07-04 11:00:00 31.3 13 Sudeste 25 Sudeste 0 962.9 0.1 23
2019-07-04 10:00:00 27.5 2 Noroeste 9 Noroeste 0 963.3 0.8 31
2019-07-04 09:00:00 24.5 4 Sur 13 Este 0 963.2 1.1 36
2019-07-04 08:00:00 22.6 4 Sudeste 14 Sudoeste 0 962.8 1.2 43
2019-07-04 07:00:00 20.5 2 Sur 13 Sudeste 0 962.5 1.1 45
2019-07-04 06:00:00 22 6 Norte 24 Sudeste 0 962.1 0.5 40
2019-07-04 05:00:00 22.6 6 Sudoeste -- -- 0 961.6 -0.1 38
2019-07-04 04:00:00 23.4 7 Sur 15 Sudoeste 0 961.4 0 36
2019-07-04 03:00:00 23.7 6 Noroeste 20 Sudeste 0 961.6 0.5 35
2019-07-04 02:00:00 24.8 5 Nordeste 31 Sudeste 0 961.7 0.8 33
2019-07-04 01:00:00 25.6 15 Sur 35 Sudeste 0 961.4 1 31
2019-07-04 00:00:00 26.1 18 Sur 37 Sur 0 961.1 1.4 30
2019-07-03 23:00:00 26.8 14 Sudeste 36 Sudeste 0 960.9 1.6 28
2019-07-03 22:00:00 27.9 23 Sudeste 43 Sudeste 0 960.4 1.5 25
2019-07-03 21:00:00 29.4 22 Sudeste 39 Sudeste 0 959.7 1.2 23
2019-07-03 20:00:00 32.3 19 Sudeste 37 Sudeste 0 959.3 0.6 21
2019-07-03 19:00:00 33.6 21 Sudeste 36 Sudeste 0 958.9 -0.3 19
2019-07-03 18:00:00 36 14 Sudeste 30 Sur 0 958.5 -1.5 14
2019-07-03 17:00:00 36.7 12 Sur 29 Sudeste 0 958.7 -2.2 16
2019-07-03 16:00:00 36.2 8 Sudeste 26 Sudeste 0 959.2 -2.3 14
2019-07-03 15:00:00 35.7 7 Sur 20 Oeste 0 960 -1.9 16
2019-07-03 14:00:00 33.6 -- -- -- -- -- 960.9 -1.1 22
2019-07-03 13:00:00 32.6 7 Nordeste 15 Nordeste 0 961.5 -0.7 25
2019-07-03 12:00:00 29.8 7 Norte 18 Nordeste 0 961.9 -0.1 31
2019-07-03 11:00:00 28.1 8 Norte 14 Norte 0 962 0.2 35
2019-07-03 10:00:00 26.1 4 Nordeste 9 Este 0 962.2 0.9 42
2019-07-03 09:00:00 23.5 4 Nordeste 12 Oeste 0 962 1.1 50
2019-07-03 08:00:00 21.9 9 Oeste 13 Oeste 0 961.8 0.9 52
2019-07-03 07:00:00 20.8 10 Oeste 14 Oeste 0 961.3 0.4 47
2019-07-03 06:00:00 21.4 3 Oeste 13 Sudoeste 0 960.9 0.1 44
2019-07-03 05:00:00 22.9 7 Oeste 24 Sur 0 960.9 0 40
2019-07-03 04:00:00 25.1 9 Sur 38 Sur 0 960.9 0.3 29
2019-07-03 03:00:00 24.9 7 Noroeste 14 Noroeste 0 960.8 0 33
2019-07-03 02:00:00 26 9 Sudeste -- -- 0 960.9 0.4 32
2019-07-03 01:00:00 26.2 13 Sur 30 Sur 0 960.6 0.2 33
2019-07-03 00:00:00 26.5 9 Sur 32 Sudeste 0 960.8 0 33
2019-07-02 23:00:00 27 15 Sur 38 Sur 0 960.5 0.7 34
2019-07-02 22:00:00 25.5 11 Sudoeste 41 Sudoeste 0 960.4 1.4 44
2019-07-02 21:00:00 26.2 25 Sudoeste 45 Sudoeste 0 960.8 1.4 44
2019-07-02 20:00:00 30.2 22 Sudeste 40 Sudeste 0 959.8 0.2 27
2019-07-02 19:00:00 32 22 Sudeste 34 Sudeste 0 959 -1.4 24
2019-07-02 18:00:00 32.4 13 Sudeste 31 Sudeste 0 959.4 -1.8 24
2019-07-02 17:00:00 35.3 14 Sudeste 28 Sudeste 0 959.6 -2.4 20
2019-07-02 16:00:00 35.2 14 Sudeste 30 Sudeste 0 960.4 -2.6 20
2019-07-02 15:00:00 32.8 9 Nordeste 23 Norte 0 961.2 -2.5 26
2019-07-02 14:00:00 30.3 10 Nordeste 22 Nordeste 0 962 -2 29
2019-07-02 13:00:00 28.3 11 Norte 19 Norte 0 963 -1.4 33
2019-07-02 12:00:00 26.1 8 Nordeste 17 Norte 0 963.7 -0.8 38
2019-07-02 11:00:00 24.8 7 Nordeste 14 Norte 0 964 -0.4 41
2019-07-02 10:00:00 22.4 5 Noroeste 12 Noroeste 0 964.4 0.2 49
2019-07-02 09:00:00 20.2 4 Noroeste 8 Noroeste 0 964.5 0.6 56
2019-07-02 08:00:00 18.8 2 Este -- -- -- 964.4 0.9 63
2019-07-02 07:00:00 17.3 0 Calma 5 Oeste 0 964.2 0.7 65
2019-07-02 06:00:00 18.2 3 Sudoeste 13 Noroeste 0 963.9 0.3 61
2019-07-02 05:00:00 19.4 6 Sudoeste 13 Sudoeste 0 963.5 -0.8 58
2019-07-02 04:00:00 20.2 9 Sudoeste 14 Sudoeste 0 963.5 -1.5 55
2019-07-02 03:00:00 20.7 2 Oeste 10 Sudoeste 0 963.6 -1.8 53
2019-07-02 02:00:00 21.3 6 Sudoeste 10 Sudoeste 0 964.3 -0.5 52
2019-07-02 01:00:00 22 6 Noroeste 16 Oeste 0 965 2.1 49
2019-07-02 00:00:00 23.1 10 Oeste 40 Noroeste 0 965.4 3.8 46
2019-07-01 23:00:00 24.9 20 Noroeste 36 Noroeste 0 964.8 3.8 40
2019-07-01 22:00:00 28.6 8 Sudoeste 35 Sudeste 0 962.9 2.8 23
2019-07-01 21:00:00 30.7 17 Sudeste 50 Sudeste 0 961.6 1.3 15
2019-07-01 20:00:00 32.2 22 Sudeste 54 Sudeste 0 961 0.3 19
2019-07-01 19:00:00 33.6 29 Sudeste 54 Sudeste 0 960.1 -1.3 18
2019-07-01 18:00:00 35.2 30 Sudeste 51 Sudeste 0 960.3 -1.6 17
2019-07-01 17:00:00 36.8 19 Sudeste 39 Sudeste 0 960.7 -2.1 15
2019-07-01 16:00:00 37.8 16 Sudeste 29 Este 0 961.4 -2.3 15
2019-07-01 15:00:00 34.9 10 Norte 22 Norte 0 961.9 -2.2 22
2019-07-01 14:00:00 32.3 9 Nordeste 22 Norte 0 962.8 -1.5 26
2019-07-01 13:00:00 30.2 8 Norte 21 Norte 0 963.7 -0.8 28
2019-07-01 12:00:00 28.5 9 Norte 21 Norte 0 964.1 -0.4 31
2019-07-01 11:00:00 27.8 8 Norte 19 Norte 0 964.3 0 33
2019-07-01 10:00:00 26.3 8 Norte 16 Norte 0 964.5 0.9 36
2019-07-01 09:00:00 24.4 5 Norte 14 Noroeste 0 964.5 1.9 41
2019-07-01 08:00:00 23.2 6 Oeste 24 Noroeste 0 964.3 2.5 48
2019-07-01 07:00:00 23.7 12 Noroeste 23 Noroeste 0 963.6 2.1 39
2019-07-01 06:00:00 26.9 10 Oeste 24 Sudoeste 0 962.6 1.1 25
2019-07-01 05:00:00 28 15 Sur 35 Sudeste 0 961.8 -0.1 22
2019-07-01 04:00:00 28.6 18 Sur 44 Sur 0 961.5 -0.6 20
2019-07-01 03:00:00 29.6 27 Sur 51 Sudeste 0 961.5 -0.4 18
2019-07-01 02:00:00 29.8 26 Sur 46 Sur 0 961.9 0.1 18
2019-07-01 01:00:00 30.2 26 Sur 50 Sudeste 0 962.1 0.7 16
2019-07-01 00:00:00 30.8 26 Sur 48 Sudeste 0 961.9 0.8 16
2019-06-30 23:00:00 31.1 26 Sur 51 Sudeste 0 961.8 0.9 17
2019-06-30 22:00:00 31.8 24 Sudeste 47 Sur 0 961.4 0.5 17
2019-06-30 21:00:00 33.3 24 Sudeste 47 Sur 0 961.1 -0.2 19
2019-06-30 20:00:00 35.5 28 Sudeste 46 Sudeste 0 960.9 -0.7 16
2019-06-30 19:00:00 37.5 24 Sudeste 40 Sudeste 0 960.9 -1.1 13
2019-06-30 18:00:00 38.9 23 Sudeste 37 Sudeste 0 961.3 -0.8 10
2019-06-30 17:00:00 40.2 18 Sudeste 31 Sudeste 0 961.6 -1.2 9
2019-06-30 16:00:00 41.3 12 Sur 30 Norte 0 962 -1.5 8
2019-06-30 15:00:00 39.6 13 Norte 30 Norte 0 962.1 -2.1 12
2019-06-30 14:00:00 37.9 13 Norte 24 Norte 0 962.8 -1.5 12
2019-06-30 13:00:00 36.3 7 Nordeste 16 Nordeste 0 963.5 -0.6 12
2019-06-30 12:00:00 34.1 8 Este 18 Nordeste 0 964.2 0.6 15
2019-06-30 11:00:00 32.1 8 Norte 17 Norte 0 964.3 1.2 15
2019-06-30 10:00:00 31.5 8 Norte 15 Sur 0 964.1 1.1 12
2019-06-30 09:00:00 30.1 9 Sudoeste 23 Sudoeste 0 963.6 1.7 11
2019-06-30 08:00:00 27.6 9 Sudoeste 24 Sudoeste 0 963.1 1.5 12
2019-06-30 07:00:00 26.1 5 Nordeste 38 Sudeste 0 963 1.6 14
2019-06-30 06:00:00 28.3 19 Sur 36 Sudeste 0 961.9 0.5 12
2019-06-30 05:00:00 27.8 17 Sur 35 Sur 0 961.6 0.1 11
2019-06-30 04:00:00 28.4 15 Sur 33 Sur 0 961.4 -0.2 11
2019-06-30 03:00:00 29.6 16 Sur 28 Sur 0 961.4 -0.1 10
2019-06-30 02:00:00 30.7 14 Sur 28 Sur 0 961.5 0 10
2019-06-30 01:00:00 31.8 14 Sur 29 Sur 0 961.6 0.8 9
2019-06-30 00:00:00 32.4 15 Sur 34 Sur 0 961.5 1 10
2019-06-29 23:00:00 33.4 13 Sur 31 Sur 0 961.5 1.6 10
2019-06-29 22:00:00 34.8 19 Sudeste 37 Sudeste 0 960.8 1.3 10
2019-06-29 21:00:00 36.7 18 Sudeste 35 Sudeste 0 960.5 0.8 8
2019-06-29 20:00:00 38.8 20 Sudeste 41 Sur 0 959.9 0.1 6
2019-06-29 19:00:00 40.3 21 Sudeste 36 Sudeste 0 959.5 -0.7 6
2019-06-29 18:00:00 42.1 14 Sudeste 31 Este 0 959.7 -0.9 5
2019-06-29 17:00:00 42.7 11 Sudeste 24 Sudeste 0 959.8 -1.4 4
2019-06-29 16:00:00 42.8 6 Sudeste 24 Este 0 960.2 -1.6 5
2019-06-29 15:00:00 40.9 13 Norte 25 Norte 0 960.6 -1.6 6
2019-06-29 14:00:00 40.7 8 Nordeste 23 Nordeste 0 961.2 -1.2 5
2019-06-29 13:00:00 39.3 6 Nordeste 16 Nordeste 0 961.8 -0.8 5
2019-06-29 12:00:00 38.5 5 Este 9 Sudeste 0 962.2 -0.2 6
2019-06-29 11:00:00 35.7 3 Norte 10 Sudoeste 0 962.4 0.4 8
2019-06-29 10:00:00 31.5 7 Sur 14 Sudoeste 0 962.6 0.7 11
2019-06-29 09:00:00 27.3 7 Sudoeste 23 Sudoeste 0 962.4 0.6 14
2019-06-29 08:00:00 25.2 16 Sudoeste 23 Sudoeste 0 962 0.2 15
2019-06-29 07:00:00 22.7 5 Oeste 22 Sudoeste 0 961.9 -0.1 21
2019-06-29 06:00:00 22.1 16 Sudoeste 21 Sudoeste 0 961.8 -0.4 25
2019-06-29 05:00:00 23 16 Sudoeste 20 Sudoeste 0 961.8 -0.6 25
2019-06-29 04:00:00 23.9 9 Sur 14 Sudoeste 0 962 -0.7 27
2019-06-29 03:00:00 24.9 9 Sudoeste 13 Sudoeste 0 962.2 -0.3 27
2019-06-29 02:00:00 25.4 6 Oeste 13 Sudoeste 0 962.4 0.1 26
2019-06-29 01:00:00 26.2 6 Oeste 11 Oeste 0 962.7 0.9 23
2019-06-29 00:00:00 30.1 6 Sur 13 Sur 0 962.5 0.8 17
2019-06-28 23:00:00 32.7 7 Sur 27 Sudeste 0 962.3 0.8 13
2019-06-28 22:00:00 34.7 15 Sur 26 Sur 0 961.8 0.5 11
2019-06-28 21:00:00 36.8 10 Sudeste 23 Este 0 961.7 0.3 7
2019-06-28 20:00:00 39.3 14 Sudeste 31 Sudeste 0 961.5 0 6
2019-06-28 19:00:00 40.2 18 Sudeste 34 Sudeste 0 961.3 -0.4 5
2019-06-28 18:00:00 41.1 18 Sudeste 35 Sudeste 0 961.4 -0.9 6
2019-06-28 17:00:00 41.7 15 Sudeste 40 Sur 0 961.5 -1.6 6
2019-06-28 16:00:00 42.1 13 Este 30 Norte 0 961.7 -2 7
2019-06-28 15:00:00 39.8 15 Norte 25 Norte 0 962.3 -1.9 10
2019-06-28 14:00:00 38.5 10 Norte 22 Nordeste 0 963.1 -1.1 10
2019-06-28 13:00:00 37.1 9 Norte 18 Norte 0 963.7 -0.8 13
2019-06-28 12:00:00 35.2 7 Norte 15 Noroeste 0 964.2 -0.3 15
2019-06-28 11:00:00 33.8 4 Norte 12 Norte 0 964.2 0.1 13
2019-06-28 10:00:00 30.1 4 Este 9 Este 0 964.5 0.9 21
2019-06-28 09:00:00 26.9 5 Sudoeste 11 Noroeste 0 964.5 1.1 22
2019-06-28 08:00:00 23.3 3 Noroeste 7 Nordeste 0 964.1 0.5 30
2019-06-28 07:00:00 23.2 2 Norte 17 Sur 0 963.6 -0.2 26
2019-06-28 06:00:00 24.2 5 Nordeste 18 Sudoeste 0 963.4 -0.5 25
2019-06-28 05:00:00 24.5 9 Sur 13 Sur 0 963.6 -0.6 26
2019-06-28 04:00:00 25.3 6 Sudoeste 12 Sudoeste 0 963.8 -0.6 26
2019-06-28 03:00:00 26.4 5 Este 22 Sur 0 963.9 -0.5 25
2019-06-28 02:00:00 27.6 9 Sudeste 18 Este 0 964.2 -0.3 24
2019-06-28 01:00:00 28.7 5 Este 24 Sudeste 0 964.4 0.7 23
2019-06-28 00:00:00 30.1 8 Sur 20 Sur 0 964.4 0.8 22
2019-06-27 23:00:00 30.8 8 Sudeste 33 Sur 0 964.5 1 23
2019-06-27 22:00:00 31.9 18 Sur 35 Sudeste 0 963.7 0.1 21
2019-06-27 21:00:00 33.3 23 Sudeste 36 Sur 0 963.6 -0.1 21
2019-06-27 20:00:00 35.1 22 Sudeste 36 Sudeste 0 963.5 -0.3 18
2019-06-27 19:00:00 36.8 17 Sudeste 37 Sur 0 963.6 -0.9 14
2019-06-27 18:00:00 39.3 18 Sur 38 Sudeste 0 963.7 -1.2 11
2019-06-27 17:00:00 39.5 22 Sur 37 Sudeste 0 963.8 -1.6 11
2019-06-27 16:00:00 39.9 13 Sur 31 Sur 0 964.5 -1.1 11
2019-06-27 15:00:00 39.7 16 Sudeste 41 Sur 0 964.9 -1.3 10
2019-06-27 14:00:00 39 20 Sudeste 31 Sudeste 0 965.4 -0.9 10
2019-06-27 13:00:00 38.8 18 Sudeste 28 Sur 0 965.6 -1 10
2019-06-27 12:00:00 35 5 Nordeste 14 Nordeste 0 966.2 -0.4 18
2019-06-27 11:00:00 31.1 5 Nordeste 11 Norte 0 966.3 0 26
2019-06-27 10:00:00 28.5 5 Norte 10 Norte 0 966.6 0.6 27
2019-06-27 09:00:00 25.4 8 Norte 13 Norte 0 966.6 0.8 32
2019-06-27 08:00:00 23.3 2 Noroeste 8 Norte 0 966.3 0.7 37
2019-06-27 07:00:00 23.3 4 Norte 17 Sudeste 0 966 0.5 34
2019-06-27 06:00:00 25.6 11 Sudeste 25 Sudeste 0 965.8 0.8 30
2019-06-27 05:00:00 26.3 12 Sudeste 23 Sudeste 0 965.6 0.6 28
2019-06-27 04:00:00 26.4 9 Sudeste 42 Sur 0 965.5 0.4 27
2019-06-27 03:00:00 27.6 25 Sur 55 Sudeste 0 965 -0.1 24
2019-06-27 02:00:00 27.5 27 Sur 57 Sur 0 965 0.1 23
2019-06-27 01:00:00 28.4 31 Sur 56 Sur 0 965.1 0.9 21
2019-06-27 00:00:00 28.3 24 Sur 52 Sudeste 0 965.1 1.6 24
2019-06-26 23:00:00 28.7 26 Sur 49 Sudeste 0 964.9 1.7 25
2019-06-26 22:00:00 28.6 26 Sur 46 Sur 0 964.2 1.7 27
2019-06-26 21:00:00 30.2 31 Sur 51 Sur 0 963.5 1.2 25
2019-06-26 20:00:00 32.1 24 Sur 49 Sur 0 963.2 1.1 23
2019-06-26 19:00:00 33.4 24 Sur 49 Sur 0 962.5 0.2 22
2019-06-26 18:00:00 34.4 31 Sur 57 Sudeste 0 962.3 -0.6 20
2019-06-26 17:00:00 35.5 28 Sur 53 Sur 0 962.1 -1.2 18
2019-06-26 16:00:00 35.8 26 Sur 41 Sudeste 0 962.3 -1.5 18
2019-06-26 15:00:00 35.7 19 Sur 37 Sur 0 962.9 -1.1 20
2019-06-26 14:00:00 36 15 Sur 28 Sudeste 0 963.3 -0.9 20
2019-06-26 13:00:00 34.8 12 Sur 30 Sudeste 0 963.8 -0.9 21
2019-06-26 12:00:00 32.1 4 Norte 20 Este 0 964 -0.4 27
2019-06-26 11:00:00 29.4 9 Este -- -- -- 964.2 0.1 36
2019-06-26 10:00:00 24.3 3 Nordeste 10 Norte 0 964.7 0.7 59
2019-06-26 09:00:00 21.1 5 Noroeste 9 Norte 0 964.4 0.6 80
2019-06-26 08:00:00 19.4 3 Noroeste 5 Oeste 0 964.1 0.5 86
2019-06-26 07:00:00 17.9 4 Oeste 8 Oeste 0 964 1 88
2019-06-26 06:00:00 18.3 4 Oeste 8 Noroeste 0 963.8 1.2 82
2019-06-26 05:00:00 19.3 6 Noroeste 16 Noroeste 0 963.6 1.1 82
2019-06-26 04:00:00 24.9 9 Noroeste 39 Sudeste 0 963 0.4 47
2019-06-26 03:00:00 27.5 29 Sudeste 48 Sudeste 0 962.6 0.2 26
2019-06-26 02:00:00 26.7 28 Sudeste 51 Sur 0 962.5 0.2 30
2019-06-26 01:00:00 25.3 9 Nordeste 23 Este 0 962.6 0.8 37
2019-06-26 00:00:00 25.2 10 Este 28 Sudeste 0 962.4 1.1 39
2019-06-25 23:00:00 25.9 5 Sudeste 18 Este 0 962.3 1.7 36
2019-06-25 22:00:00 27.3 4 Sudeste 28 Sudeste 0 961.8 1.7 32
2019-06-25 21:00:00 29.7 18 Sudeste 39 Sudeste 0 961.3 0.9 27
2019-06-25 20:00:00 32.9 21 Sudeste 33 Sur 0 960.6 -0.1 24
2019-06-25 19:00:00 36.6 12 Sudoeste 20 Sudoeste 0 960.1 -1 18
2019-06-25 18:00:00 36 9 Nordeste 21 Nordeste 0 960.4 -1.3 21
2019-06-25 17:00:00 35.7 8 Nordeste 27 Norte 0 960.7 -1.6 24
2019-06-25 16:00:00 33.4 10 Norte 24 Norte 0 961.1 -1.6 28
2019-06-25 15:00:00 32.2 9 Norte 22 Norte 0 961.7 -1.5 31
2019-06-25 14:00:00 31.7 11 Norte 24 Norte 0 962.3 -0.5 28
2019-06-25 13:00:00 30.7 6 Nordeste 15 Noroeste 0 962.7 -0.7 31
2019-06-25 12:00:00 28.5 6 Nordeste 14 Nordeste 0 963.2 0.3 35
2019-06-25 11:00:00 27.1 5 Norte 13 Noroeste 0 962.8 0.1 36
2019-06-25 10:00:00 24.2 3 Nordeste 10 Norte 0 963.4 1.3 47
2019-06-25 09:00:00 21.4 3 Este 8 Sudeste 0 962.9 1.3 53
2019-06-25 08:00:00 18.7 4 Sur 6 Sur 0 962.7 1.6 61
2019-06-25 07:00:00 17.7 0 Calma 10 Oeste 0 962.1 1.2 67
2019-06-25 06:00:00 18 6 Oeste 11 Oeste 0 961.6 0.7 59
2019-06-25 05:00:00 18.2 2 Oeste 8 Noroeste 0 961.1 0.2 59
2019-06-25 04:00:00 19.6 4 Noroeste 9 Oeste 0 960.9 0.2 53
2019-06-25 03:00:00 21.5 3 Noroeste 18 Sudoeste 0 960.9 0.4 48
2019-06-25 02:00:00 22.9 10 Sudeste 22 Sudeste 0 960.9 0.7 43
2019-06-25 01:00:00 23.5 11 Sudeste 25 Sur 0 960.7 1.1 41
2019-06-25 00:00:00 23.6 6 Sur 21 Sudeste 0 960.5 1.5 39
2019-06-24 23:00:00 25.1 11 Sudeste 21 Sudeste 0 960.2 1.7 33
2019-06-24 22:00:00 26.5 9 Sudeste 26 Sur 0 959.6 1.2 30
2019-06-24 21:00:00 28.6 16 Sudeste 31 Sudeste 0 959 0.1 25
2019-06-24 20:00:00 32.2 12 Sudeste 18 Sudeste 0 958.5 -0.5 18
2019-06-24 19:00:00 31.6 10 Nordeste 23 Nordeste 0 958.4 -0.9 22
2019-06-24 18:00:00 32.9 10 Este 31 Este 0 958.9 -0.4 19
2019-06-24 17:00:00 33 17 Este 35 Nordeste 0 959 -1 17
2019-06-24 16:00:00 32.4 16 Nordeste 36 Este 0 959.3 -1.2 18
2019-06-24 15:00:00 35.5 11 Este 30 Este 0 959.3 -1.3 14
2019-06-24 14:00:00 33.7 10 Sudeste 27 Sudeste 0 960 -0.9 15
2019-06-24 13:00:00 33.9 7 Este 23 Este 0 960.5 -0.8 14
2019-06-24 12:00:00 32.5 11 Sur 22 Este 0 960.6 -0.7 13
2019-06-24 11:00:00 28.2 7 Norte 15 Norte 0 960.9 -0.2 29
2019-06-24 10:00:00 24.9 7 Norte 13 Norte 0 961.3 0.5 39
2019-06-24 09:00:00 21.5 4 Norte 9 Noroeste 0 961.3 1 54
2019-06-24 08:00:00 19.5 4 Noroeste 7 Noroeste 0 961.1 0.9 61
2019-06-24 07:00:00 18.8 3 Noroeste 10 Nordeste 0 960.8 1 56
2019-06-24 06:00:00 22.2 5 Sudeste 22 Sudeste 0 960.3 1.5 33
2019-06-24 05:00:00 24 10 Sudeste 34 Sudeste 0 960.2 1.3 29
2019-06-24 04:00:00 24.7 24 Sudeste 57 Sur 0 959.8 1.2 28
2019-06-24 03:00:00 25.2 33 Sur 70 Sur 0 958.8 0.1 20
2019-06-24 02:00:00 25.7 35 Sur 71 Sur 0 958.9 0.3 19
2019-06-24 01:00:00 26.1 33 Sur 61 Sur 0 958.6 0.7 19
2019-06-24 00:00:00 26.1 28 Sur 54 Sur 0 958.7 0.9 23
2019-06-23 23:00:00 27.2 27 Sur 52 Sur 0 958.6 1.1 23
2019-06-23 22:00:00 28 23 Sur 55 Sur 0 957.9 0.9 22
2019-06-23 21:00:00 29.4 27 Sur 51 Sudeste 0 957.8 0.3 22
2019-06-23 20:00:00 31.8 21 Sudeste 41 Sudeste 0 957.5 -0.2 20
2019-06-23 19:00:00 34.1 21 Sudeste 42 Sudeste 0 957 -1 18
2019-06-23 18:00:00 35 18 Sudeste 35 Sudeste 0 957.5 -1.1 19
2019-06-23 17:00:00 35.6 22 Sudeste 32 Sudeste 0 957.7 -1.7 18
2019-06-23 16:00:00 36.6 14 Sudeste 27 Nordeste 0 958 -1.8 14
2019-06-23 15:00:00 35.3 13 Nordeste 28 Norte 0 958.6 -1.6 18
2019-06-23 14:00:00 33.6 11 Nordeste 24 Norte 0 959.4 -1.1 21
2019-06-23 13:00:00 32.7 8 Norte 21 Norte 0 959.8 -1.1 20
2019-06-23 12:00:00 30.8 9 Norte 17 Nordeste 0 960.2 -0.6 23
2019-06-23 11:00:00 28.3 6 Norte 10 Norte 0 960.5 0.3 33
2019-06-23 10:00:00 25.7 4 Nordeste 10 Norte 0 960.9 1.2 42
2019-06-23 09:00:00 21.8 5 Norte 8 Norte 0 960.8 1.3 55
2019-06-23 08:00:00 20 4 Norte 10 Norte 0 960.2 0.7 63
2019-06-23 07:00:00 19.3 4 Norte 7 Norte 0 959.7 0.1 63
2019-06-23 06:00:00 20.8 4 Noroeste 10 Sudoeste 0 959.5 -0.4 56
2019-06-23 05:00:00 22.1 8 Sudeste 12 Sur 0 959.5 -0.6 50
2019-06-23 04:00:00 21.9 5 Sudeste 10 Sudoeste 0 959.6 -0.4 52
2019-06-23 03:00:00 21.9 4 Sudoeste 9 Este 0 959.9 -0.1 53
2019-06-23 02:00:00 22.5 4 Sudeste 25 Sur 0 960.1 0.1 52
2019-06-23 01:00:00 22.7 12 Sur 28 Sur 0 960 0.5 53
2019-06-23 00:00:00 23.2 15 Sur 28 Sur 0 960 0.8 52
2019-06-22 23:00:00 24 9 Sudeste 22 Sur 0 960 1.1 51
2019-06-22 22:00:00 25.1 7 Sudeste 23 Sudeste 0 959.5 0.7 48
2019-06-22 21:00:00 26.2 17 Sudeste 28 Sur 0 959.2 0.3 44
2019-06-22 20:00:00 27.8 21 Sudeste 33 Sudeste 0 958.9 -0.6 39
2019-06-22 19:00:00 31.1 13 Este 29 Este 0 958.8 -1.4 30
2019-06-22 18:00:00 33.2 13 Este 30 Este 0 958.9 -2.3 21
2019-06-22 17:00:00 31.2 14 Norte 26 Nordeste 0 959.5 -2.6 22
2019-06-22 16:00:00 30.2 12 Nordeste 23 Este 0 960.2 -2.7 24
2019-06-22 15:00:00 29.3 8 Norte 22 Nordeste 0 961.2 -2.1 25
2019-06-22 14:00:00 27.4 9 Norte 19 Norte 0 962.1 -1.5 29
2019-06-22 13:00:00 26.5 5 Norte 17 Noroeste 0 962.9 -1 29
2019-06-22 12:00:00 24.7 5 Nordeste 14 Norte 0 963.3 -0.6 33
2019-06-22 11:00:00 21.9 6 Norte 13 Nordeste 0 963.6 -0.2 40
2019-06-22 10:00:00 21 6 Norte 9 Norte 0 963.9 0.2 42
2019-06-22 09:00:00 18 4 Sudoeste 11 Sudoeste 0 963.9 0.2 54
2019-06-22 08:00:00 15.6 7 Sudoeste 15 Sudoeste 0 963.8 0 65
2019-06-22 07:00:00 14 9 Sudoeste 15 Sudoeste 0 963.7 -0.4 73
2019-06-22 06:00:00 14.3 11 Sudoeste 17 Sudoeste 0 963.7 -0.6 71
2019-06-22 05:00:00 15.3 9 Sudoeste 20 Sudoeste 0 963.8 -0.8 65
2019-06-22 04:00:00 15.3 10 Sudoeste 16 Sudoeste 0 964.1 -0.5 67
2019-06-22 03:00:00 16.1 9 Sudoeste 14 Sudoeste 0 964.3 0.2 62
2019-06-22 02:00:00 16.4 9 Sudoeste 13 Sudoeste 0 964.6 0.8 61
2019-06-22 01:00:00 17.2 7 Sudoeste 10 Sudoeste 0 964.6 2.1 56
2019-06-22 00:00:00 18.2 4 Oeste 9 Sudoeste 0 964.1 2.1 54
2019-06-21 23:00:00 19.7 8 Noroeste 22 Noroeste 0 963.8 2.2 49
2019-06-21 22:00:00 21.2 9 Noroeste 20 Noroeste 0 962.5 1 48
2019-06-21 21:00:00 23.9 10 Noroeste 17 Norte 0 962 0.4 40
2019-06-21 20:00:00 24.9 12 Noroeste 19 Noroeste 0 961.6 0 41
2019-06-21 19:00:00 25.5 10 Noroeste 16 Norte 0 961.5 -0.7 38
2019-06-21 18:00:00 24.4 7 Norte 17 Noroeste 0 961.6 -0.8 42
2019-06-21 17:00:00 23.9 7 Noroeste 26 Norte 0 961.6 -1.1 44
2019-06-21 16:00:00 23.1 9 Norte 20 Norte 0 962.2 -0.6 48
2019-06-21 15:00:00 22.1 9 Norte 17 Norte 0 962.4 -0.5 54
2019-06-21 14:00:00 21.6 6 Norte 15 Norte 0 962.7 0.1 57
2019-06-21 13:00:00 21.1 9 Noroeste 16 Norte 0 962.8 0.4 61
2019-06-21 12:00:00 19.3 9 Norte 15 Norte 0 962.9 0.6 68
2019-06-21 11:00:00 18.9 8 Noroeste 14 Noroeste 0 962.6 0.4 70
2019-06-21 10:00:00 18.8 2 Oeste 13 Noroeste 0 962.4 0.8 72
2019-06-21 09:00:00 17.4 3 Este 6 Sudeste 0 962.3 0.9 80
2019-06-21 08:00:00 16.7 3 Noroeste 15 Noroeste 0 962.2 1.5 82
2019-06-21 07:00:00 16.3 8 Noroeste 13 Noroeste 0 961.6 0.9 82
2019-06-21 06:00:00 16.2 3 Este 8 Norte 0 961.4 0.6 87
2019-06-21 05:00:00 16.7 4 Norte 7 Noroeste 0 960.7 -0.4 83
2019-06-21 04:00:00 17.2 3 Norte 7 Sudoeste 0 960.7 -0.5 78
2019-06-21 03:00:00 17.3 5 Oeste 13 Oeste 0 960.8 0 78
2019-06-21 02:00:00 17.4 6 Oeste 15 Noroeste 0 961.1 1.2 79
2019-06-21 01:00:00 17.7 10 Noroeste 19 Noroeste 0 961.2 2 76
2019-06-21 00:00:00 18.6 13 Noroeste 25 Noroeste 0 960.8 2.1 79
2019-06-20 23:00:00 19.3 5 Sudoeste 8 Sudoeste 0 959.9 1.2 88
2019-06-20 22:00:00 20 4 Sur 8 Sudoeste 0 959.2 0.8 84
2019-06-20 21:00:00 20.7 5 Sudoeste 12 Sudoeste 0 958.7 1.3 79
2019-06-20 20:00:00 20.8 4 Oeste 13 Sudeste 0 958.7 1 79
2019-06-20 19:00:00 19.7 12 Noroeste 50 Oeste 9.4 958.4 0 82
2019-06-20 18:00:00 26.1 12 Sudeste 29 Sudeste 0 957.4 -1.2 37
2019-06-20 17:00:00 28.8 7 Este 17 Este 0 957.7 -1.8 37
2019-06-20 16:00:00 26 11 Este 30 Sudeste 0 958.4 -1.9 51
2019-06-20 15:00:00 30.2 11 Noroeste 25 Norte 0 958.6 -1.9 27
2019-06-20 14:00:00 29.5 4 Sur 19 Norte 0 959.5 -1.2 29
2019-06-20 13:00:00 27.5 5 Este 22 Norte 0 960.3 -0.6 32
2019-06-20 12:00:00 25.3 10 Noroeste 23 Norte 0 960.5 -0.4 36
2019-06-20 11:00:00 24 11 Noroeste 26 Noroeste 0 960.7 0 41
2019-06-20 10:00:00 23.2 10 Noroeste 28 Norte 0 960.9 0.4 44
2019-06-20 09:00:00 21.3 12 Noroeste 22 Noroeste 0 960.9 0.8 50
2019-06-20 08:00:00 19.3 3 Sudeste 6 Sudeste 0 960.7 1.1 54
2019-06-20 07:00:00 17.2 2 Sur 6 Sudoeste 0 960.5 1.3 59
2019-06-20 06:00:00 18.3 3 Oeste 11 Noroeste 0 960.1 1 54
2019-06-20 05:00:00 19.8 5 Noroeste 10 Noroeste 0 959.6 0.3 48
2019-06-20 04:00:00 21.2 3 Oeste 15 Sudoeste 0 959.2 0.6 43
2019-06-20 03:00:00 22.5 6 Sudoeste 21 Oeste 0 959.1 0.6 39
2019-06-20 02:00:00 23.7 9 Oeste 21 Oeste 0 959.3 1 35
2019-06-20 01:00:00 23.9 5 Sur 22 Sudoeste 0 958.6 0.9 31
2019-06-20 00:00:00 24.5 10 Sur 27 Sur 0 958.5 1 29
2019-06-19 23:00:00 25.6 15 Sur 31 Sudeste 0 958.3 1.1 28
2019-06-19 22:00:00 26.9 8 Sur 26 Sudeste 0 957.7 0.6 26
2019-06-19 21:00:00 28.4 11 Sudeste 24 Sudeste 0 957.5 0.5 23
2019-06-19 20:00:00 29.5 11 Sudeste 25 Sudeste 0 957.2 -0.3 23
2019-06-19 19:00:00 31.9 15 Este 24 Nordeste 0 957.1 -0.8 22
2019-06-19 18:00:00 33.2 8 Este 24 Este 0 957 -1.6 18
2019-06-19 17:00:00 32.1 8 Nordeste 24 Norte 0 957.5 -1.8 19
2019-06-19 16:00:00 32.4 14 Noroeste 25 Noroeste 0 957.9 -1.8 18
2019-06-19 15:00:00 32 9 Nordeste 23 Nordeste 0 958.6 -1.3 19
2019-06-19 14:00:00 30.3 7 Norte 25 Norte 0 959.3 -0.7 22
2019-06-19 13:00:00 31 9 Norte 26 Norte 0 959.7 -0.7 20
2019-06-19 12:00:00 29.5 10 Noroeste 21 Oeste 0 959.9 -0.3 22
2019-06-19 11:00:00 28.2 4 Noroeste 17 Noroeste 0 960 0.2 23
2019-06-19 10:00:00 26.3 7 Nordeste 18 Norte 0 960.4 0.9 25
2019-06-19 09:00:00 24.6 11 Oeste 18 Oeste 0 960.2 1 26
2019-06-19 08:00:00 21 6 Sudoeste 9 Oeste 0 959.8 1 30
2019-06-19 07:00:00 18.2 3 Oeste 11 Oeste 0 959.5 0.9 33
2019-06-19 06:00:00 19.3 0 Calma 12 Sudoeste 0 959.2 0.6 31
2019-06-19 05:00:00 21.2 4 Sudeste 19 Oeste 0 958.8 0.4 28
2019-06-19 04:00:00 22 8 Sudoeste 13 Sudoeste 0 958.6 0.2 26
2019-06-19 03:00:00 21.7 5 Sur 19 Noroeste 0 958.6 0.2 28
2019-06-19 02:00:00 23.7 8 Sur 22 Sur 0 958.4 0.5 25
2019-06-19 01:00:00 25 15 Sur 33 Sur 0 958.4 1.4 23
2019-06-19 00:00:00 25.2 13 Sur -- -- -- 958.4 1.9 21
2019-06-18 23:00:00 25.7 20 Sur 50 Sur 0 957.9 1.7 19
2019-06-18 22:00:00 26.6 24 Sur 46 Sur 0 957 1 19
2019-06-18 21:00:00 28.1 23 Sur 43 Sudeste 0 956.5 0.5 19
2019-06-18 20:00:00 30.4 25 Sudeste 49 Sur 0 956.2 0 18
2019-06-18 19:00:00 31.6 26 Sudeste 50 Sudeste 0 956 -0.7 18
2019-06-18 18:00:00 32.9 26 Sudeste 43 Sudeste 0 956 -1.4 18
2019-06-18 17:00:00 33.6 29 Sudeste 51 Sudeste 0 956.2 -1.8 17
2019-06-18 16:00:00 35.2 22 Sudeste 38 Sudeste 0 956.7 -1.8 12
2019-06-18 15:00:00 34 11 Nordeste 27 Norte 0 957.4 -1.6 11
2019-06-18 14:00:00 33.8 12 Norte 31 Nordeste 0 958 -1.4 14
2019-06-18 13:00:00 34.3 10 Nordeste 23 Nordeste 0 958.5 -1.3 13
2019-06-18 12:00:00 34.2 10 Este 21 Este 0 959 -1.1 12
2019-06-18 11:00:00 31.8 7 Sudeste 18 Sur 0 959.4 -0.7 14
2019-06-18 10:00:00 28 2 Nordeste 10 Sudeste 0 959.8 -0.1 19
2019-06-18 09:00:00 24.4 4 Nordeste 10 Norte 0 960.1 0.9 23
2019-06-18 08:00:00 23.4 5 Nordeste 17 Sur 0 960.1 0.9 22
2019-06-18 07:00:00 22.3 6 Oeste 18 Sur 0 959.9 0.4 22
2019-06-18 06:00:00 22.4 9 Sur 34 Sur 0 959.2 -0.6 22
2019-06-18 05:00:00 22.5 18 Sur 35 Sur 0 959.2 -0.8 22
2019-06-18 04:00:00 22.5 15 Sur 38 Sur 0 959.5 -0.9 22
2019-06-18 03:00:00 22.8 19 Sur 44 Sur 0 959.8 -0.5 22
2019-06-18 02:00:00 23.7 21 Sur 48 Sudeste 0 960 0 21
2019-06-18 01:00:00 23.6 16 Sur 37 Sudeste 0 960.4 0.8 22
2019-06-18 00:00:00 23.2 20 Sudeste 44 Sudeste 0 960.3 0.9 28
2019-06-17 23:00:00 24.5 26 Sur 47 Sudeste 0 960 0.7 26
2019-06-17 22:00:00 25.6 24 Sudeste 47 Sudeste 0 959.6 0.5 25
2019-06-17 21:00:00 27.6 21 Sur 36 Sudeste 0 959.4 0.2 22
2019-06-17 20:00:00 30.3 20 Sudeste 32 Sudeste 0 959.3 -0.2 21
2019-06-17 19:00:00 31.6 19 Sudeste 32 Sudeste 0 959.1 -1 22
2019-06-17 18:00:00 33.2 14 Sudeste 33 Este 0 959.2 -1.5 21
2019-06-17 17:00:00 34.3 9 Nordeste 27 Nordeste 0 959.5 -2.1 15
2019-06-17 16:00:00 33.3 8 Norte 30 Nordeste 0 960.1 -2.3 14
2019-06-17 15:00:00 32.6 9 Nordeste 21 Nordeste 0 960.7 -2.1 15
2019-06-17 14:00:00 31.4 6 Noroeste 19 Norte 0 961.6 -1.4 19
2019-06-17 13:00:00 29.6 8 Nordeste 19 Noroeste 0 962.4 -0.7 24
2019-06-17 12:00:00 28.3 8 Norte 16 Norte 0 962.8 -0.5 25
2019-06-17 11:00:00 27.4 5 Nordeste 13 Noroeste 0 963 -0.2 28
2019-06-17 10:00:00 25.1 3 Noroeste 9 Sudeste 0 963.1 0.2 30
2019-06-17 09:00:00 21.7 5 Sur 10 Sudoeste 0 963.3 0.8 40
2019-06-17 08:00:00 18.9 6 Sudoeste 11 Sudoeste 0 963.2 1 49
2019-06-17 07:00:00 16.5 5 Oeste 10 Sudoeste 0 962.9 0.7 59
2019-06-17 06:00:00 16.8 6 Sudoeste 11 Sudoeste 0 962.5 0 53
2019-06-17 05:00:00 18.2 6 Sudoeste 21 Sudoeste 0 962.2 -0.6 53
2019-06-17 04:00:00 18.9 15 Sudoeste 21 Sudoeste 0 962.2 -0.6 51
2019-06-17 03:00:00 19.8 10 Sudoeste 15 Sudoeste 0 962.5 -0.5 49
2019-06-17 02:00:00 20.2 7 Sur 20 Sur 0 962.8 -0.1 48
2019-06-17 01:00:00 21.2 7 Sur 13 Sur 0 962.8 0.3 47
2019-06-17 00:00:00 21.6 6 Sur 13 Sur 0 963 0.7 46
2019-06-16 23:00:00 22.2 6 Sur 14 Sur 0 962.9 0.9 43
2019-06-16 22:00:00 23.4 6 Sur 19 Sur 0 962.5 0.5 38
2019-06-16 21:00:00 25.4 8 Sudeste 21 Sudeste 0 962.3 0.3 32
2019-06-16 20:00:00 26.7 13 Sudeste 29 Este 0 962 -0.4 27
2019-06-16 19:00:00 28.7 10 Este 27 Nordeste 0 962 -1 26
2019-06-16 18:00:00 30.1 13 Este 30 Este 0 962 -1.8 25
2019-06-16 17:00:00 30.1 11 Nordeste 28 Nordeste 0 962.4 -2.3 24
2019-06-16 16:00:00 30.7 8 Nordeste 27 Nordeste 0 963 -2.6 20
2019-06-16 15:00:00 29 10 Norte 27 Norte 0 963.8 -2.6 20
2019-06-16 14:00:00 27.2 9 Nordeste 21 Norte 0 964.7 -2 23
2019-06-16 13:00:00 25.9 8 Norte 23 Norte 0 965.6 -1.3 26
2019-06-16 12:00:00 24.4 6 Este 19 Norte 0 966.4 -0.4 27
2019-06-16 11:00:00 22.2 6 Norte 12 Norte 0 966.7 0 30
2019-06-16 10:00:00 20.7 3 Nordeste 11 Este 0 966.9 0.6 35
2019-06-16 09:00:00 17.4 5 Sudeste 10 Sudeste 0 966.8 0.7 45
2019-06-16 08:00:00 14.7 0 Calma 9 Sudoeste 0 966.7 0.6 50
2019-06-16 07:00:00 12.8 8 Sudoeste 12 Sudoeste 0 966.3 -0.1 55
2019-06-16 06:00:00 13.1 4 Sudoeste 16 Sudoeste 0 966.1 -0.5 54
2019-06-16 05:00:00 13.9 7 Sudoeste 12 Sudoeste 0 966.1 -0.6 51
2019-06-16 04:00:00 14 5 Sur 8 Sudoeste 0 966.4 -0.2 50
2019-06-16 03:00:00 15.7 4 Oeste 12 Sudoeste 0 966.6 0.4 45
2019-06-16 02:00:00 17 6 Sudoeste 11 Sudoeste 0 966.7 1.4 41
2019-06-16 01:00:00 17 6 Sudoeste 10 Sudoeste 0 966.6 2.3 40
2019-06-16 00:00:00 18.4 5 Sudoeste 11 Oeste 0 966.2 2.5 35